Time;durP1;ratioP1;P1;durP2;ratioP2;P2;SDS_P1;SDS_P2;PMS_P1;PMS_P2;Temp;Humidity;BMP_temperature;BMP_pressure;BME280_temperature;BME280_humidity;BME280_pressure;Samples;Min_cycle;Max_cycle;Signal;HPM_P1;HPM_P2
2023/01/31 00:00:09;;;;;;;1.02;0.93;;;5.30;99.90;;;;;;5051867;28;20071;-73
2023/01/31 00:02:35;;;;;;;2.38;1.38;;;5.20;99.90;;;;;;5051535;28;20404;-72
2023/01/31 00:05:01;;;;;;;7.90;2.28;;;5.20;99.90;;;;;;5052525;28;20017;-73
2023/01/31 00:07:26;;;;;;;17.38;5.45;;;5.20;99.90;;;;;;5052901;28;20073;-73
2023/01/31 00:09:52;;;;;;;16.23;3.60;;;5.20;99.90;;;;;;5052755;28;20047;-73
2023/01/31 00:12:18;;;;;;;8.55;2.90;;;5.20;99.90;;;;;;5052904;28;20112;-72
2023/01/31 00:14:43;;;;;;;2.55;1.40;;;5.10;99.90;;;;;;5051127;28;20048;-72
2023/01/31 00:17:09;;;;;;;14.63;3.53;;;5.10;99.90;;;;;;5052758;28;20134;-73
2023/01/31 00:19:35;;;;;;;20.60;5.20;;;5.10;99.90;;;;;;5052370;28;20131;-72
2023/01/31 00:22:00;;;;;;;19.20;2.17;;;5.20;99.90;;;;;;5052760;28;20021;-73
2023/01/31 00:24:26;;;;;;;0.25;0.25;;;5.10;99.90;;;;;;5052585;28;20474;-72
2023/01/31 00:26:55;;;;;;;5.95;2.55;;;5.10;99.90;;;;;;5051077;28;20040;-73
2023/01/31 00:29:22;;;;;;;1.77;1.65;;;5.10;99.90;;;;;;5051261;28;20389;-72
2023/01/31 00:31:48;;;;;;;14.02;3.72;;;5.10;99.90;;;;;;5052664;28;20065;-73
2023/01/31 00:34:16;;;;;;;2.47;1.75;;;5.00;99.90;;;;;;5052260;28;20481;-73
2023/01/31 00:36:46;;;;;;;0.75;0.55;;;5.10;99.90;;;;;;5052164;28;20037;-73
2023/01/31 00:39:11;;;;;;;2.80;2.28;;;5.10;99.90;;;;;;5051238;28;20095;-73
2023/01/31 00:41:38;;;;;;;4.07;1.67;;;5.00;99.90;;;;;;5052580;28;20091;-73
2023/01/31 00:44:04;;;;;;;20.48;4.85;;;4.80;99.90;;;;;;5052780;28;20351;-72
2023/01/31 00:46:30;;;;;;;2.45;1.00;;;4.90;99.90;;;;;;5055324;28;20048;-73
2023/01/31 00:48:56;;;;;;;1.90;1.77;;;4.90;99.90;;;;;;5054393;28;20037;-72
2023/01/31 00:51:23;;;;;;;3.70;1.63;;;4.90;99.90;;;;;;5056499;28;20036;-72
2023/01/31 00:53:50;;;;;;;4.78;3.63;;;4.90;99.90;;;;;;5055263;28;20029;-73
2023/01/31 00:56:18;;;;;;;0.43;0.43;;;5.00;99.90;;;;;;5056462;28;20056;-72
2023/01/31 00:58:45;;;;;;;9.43;2.20;;;5.00;99.90;;;;;;5054858;28;20043;-73
2023/01/31 01:01:25;;;;;;;11.80;3.67;;;4.90;99.90;;;;;;5055010;28;20064;-72
2023/01/31 01:03:52;;;;;;;0.52;0.52;;;4.80;99.90;;;;;;5054819;28;20489;-73
2023/01/31 01:06:18;;;;;;;20.00;1.30;;;4.90;99.90;;;;;;5054899;28;20021;-73
2023/01/31 01:08:44;;;;;;;2.90;2.63;;;4.90;99.90;;;;;;5054821;28;20025;-73
2023/01/31 01:11:15;;;;;;;5.28;3.92;;;5.00;99.90;;;;;;5054656;28;20116;-73
2023/01/31 01:13:41;;;;;;;21.52;4.22;;;4.90;99.90;;;;;;5056280;28;20472;-73
2023/01/31 01:16:12;;;;;;;0.10;0.10;;;4.90;99.90;;;;;;5054298;28;20024;-73
2023/01/31 01:18:38;;;;;;;6.30;4.50;;;4.90;99.90;;;;;;5054725;28;20067;-73
2023/01/31 01:21:09;;;;;;;12.30;3.45;;;4.80;99.90;;;;;;5055690;28;20029;-72
2023/01/31 01:23:36;;;;;;;3.47;1.40;;;4.70;99.90;;;;;;5054573;28;20116;-73
2023/01/31 01:26:04;;;;;;;0.57;0.57;;;4.70;99.90;;;;;;5055869;28;20339;-73
2023/01/31 01:28:33;;;;;;;17.65;4.57;;;4.70;99.90;;;;;;5037947;28;20127;-72
2023/01/31 01:31:04;;;;;;;19.08;5.57;;;4.70;99.90;;;;;;5055226;28;20051;-72
2023/01/31 01:33:30;;;;;;;0.98;0.60;;;4.60;99.90;;;;;;5054508;28;20573;-72
2023/01/31 01:36:00;;;;;;;11.27;3.63;;;4.70;99.90;;;;;;5055717;28;20005;-72
2023/01/31 01:38:27;;;;;;;0.73;0.65;;;4.60;99.90;;;;;;5053171;28;20036;-73
2023/01/31 01:40:52;;;;;;;0.88;0.88;;;4.70;99.90;;;;;;5052869;28;20021;-72
2023/01/31 01:43:20;;;;;;;0.85;0.85;;;4.80;99.90;;;;;;5053130;28;20033;-73
2023/01/31 01:45:47;;;;;;;8.57;2.05;;;5.00;99.90;;;;;;5053649;28;20358;-73
2023/01/31 01:48:16;;;;;;;21.23;3.75;;;5.00;99.90;;;;;;5053102;28;20052;-72
2023/01/31 01:50:47;;;;;;;5.30;1.52;;;4.80;99.90;;;;;;5053750;28;20032;-73
2023/01/31 01:53:26;;;;;;;4.15;3.05;;;4.80;99.90;;;;;;5036394;28;20029;-73
2023/01/31 01:56:00;;;;;;;12.20;3.78;;;4.90;99.90;;;;;;5053349;28;20056;-72
2023/01/31 01:58:32;;;;;;;0.30;0.30;;;4.60;99.90;;;;;;5053181;28;20033;-73
2023/01/31 02:00:58;;;;;;;6.30;3.80;;;4.70;99.90;;;;;;5052249;28;20032;-73
2023/01/31 02:03:24;;;;;;;13.07;2.88;;;4.70;99.90;;;;;;5054497;28;20443;-73
2023/01/31 02:05:57;;;;;;;18.27;5.70;;;4.70;99.90;;;;;;5052769;28;20455;-72
2023/01/31 02:08:27;;;;;;;6.63;1.52;;;4.60;99.90;;;;;;5053978;28;20056;-73
2023/01/31 02:11:04;;;;;;;2.30;1.35;;;4.70;99.90;;;;;;5052256;28;20477;-72
2023/01/31 02:13:32;;;;;;;1.83;1.67;;;4.60;99.90;;;;;;5053702;28;20440;-72
2023/01/31 02:15:58;;;;;;;5.25;2.25;;;4.50;99.90;;;;;;5052350;28;20029;-72
2023/01/31 02:18:24;;;;;;;2.90;1.63;;;4.50;99.90;;;;;;5052397;28;20021;-73
2023/01/31 02:21:29;;;;;;;4.43;3.28;;;4.50;99.90;;;;;;5052347;28;20028;-73
2023/01/31 02:24:32;;;;;;;14.02;2.45;;;4.60;99.90;;;;;;5052461;28;20029;-73
2023/01/31 02:27:02;;;;;;;20.52;5.45;;;4.50;99.90;;;;;;5051984;28;20025;-73
2023/01/31 02:29:27;;;;;;;1.13;0.95;;;4.50;99.90;;;;;;5053566;28;20025;-72
2023/01/31 02:32:28;;;;;;;6.70;2.10;;;4.50;99.90;;;;;;5051985;28;20076;-73
2023/01/31 02:35:21;;;;;;;0.65;0.65;;;4.40;99.90;;;;;;5030185;28;20037;-72
2023/01/31 02:38:23;;;;;;;21.55;4.20;;;4.50;99.90;;;;;;5013509;28;1123276;-73
2023/01/31 02:40:52;;;;;;;3.53;2.08;;;4.40;99.90;;;;;;5046006;28;20439;-72
2023/01/31 02:43:29;;;;;;;6.07;3.58;;;4.40;99.90;;;;;;5036585;28;20075;-73
2023/01/31 02:46:10;;;;;;;1.85;1.05;;;4.40;99.90;;;;;;5052807;28;20079;-73
2023/01/31 02:48:49;;;;;;;37.17;5.13;;;4.40;99.90;;;;;;5054483;28;20045;-72
2023/01/31 02:51:21;;;;;;;19.52;6.15;;;4.30;99.90;;;;;;5052728;28;20484;-73
2023/01/31 02:54:22;;;;;;;23.75;6.00;;;4.40;99.90;;;;;;5053009;28;20405;-73
2023/01/31 02:56:49;;;;;;;13.45;1.35;;;4.40;99.90;;;;;;5052587;28;20060;-73
2023/01/31 02:59:25;;;;;;;17.85;4.10;;;4.40;99.90;;;;;;5052488;28;20036;-72
2023/01/31 03:01:58;;;;;;;3.25;2.55;;;4.40;99.90;;;;;;5052765;28;20021;-72
2023/01/31 03:04:29;;;;;;;7.65;3.95;;;4.40;99.90;;;;;;5036276;28;20032;-72
2023/01/31 03:07:15;;;;;;;1.17;0.57;;;4.40;99.90;;;;;;5051784;28;20087;-73
2023/01/31 03:10:00;;;;;;;0.80;0.80;;;4.40;99.90;;;;;;5052546;28;20086;-73
2023/01/31 03:12:35;;;;;;;8.50;3.47;;;4.40;99.90;;;;;;5052117;28;20127;-73
2023/01/31 03:17:30;;;;;;;4.38;1.85;;;4.40;99.90;;;;;;5053222;28;20028;-72
2023/01/31 03:18:40;;;;;;;21.58;2.78;;;4.40;99.90;;;;;;5052214;28;20025;-73
2023/01/31 03:21:13;;;;;;;1.30;1.05;;;4.30;99.90;;;;;;5051982;28;20029;-73
2023/01/31 03:23:42;;;;;;;3.65;1.88;;;4.30;99.90;;;;;;5053311;28;20486;-72
2023/01/31 03:26:09;;;;;;;11.35;3.65;;;4.30;99.90;;;;;;5052210;28;20033;-73
2023/01/31 03:28:39;;;;;;;9.45;4.25;;;4.30;99.90;;;;;;5051948;28;20033;-73
2023/01/31 03:31:22;;;;;;;23.95;5.13;;;4.20;99.90;;;;;;5053296;28;20033;-72
2023/01/31 03:33:52;;;;;;;2.13;1.27;;;4.20;99.90;;;;;;5052163;28;20029;-73
2023/01/31 03:36:30;;;;;;;9.43;1.70;;;4.30;99.90;;;;;;5051857;28;20021;-72
2023/01/31 03:39:14;;;;;;;12.52;3.42;;;4.20;99.90;;;;;;5052054;28;20017;-73
2023/01/31 03:41:52;;;;;;;11.45;4.15;;;4.20;99.90;;;;;;5035246;28;20029;-72
2023/01/31 03:44:33;;;;;;;3.90;2.60;;;4.10;99.90;;;;;;5051880;28;20118;-72
2023/01/31 03:47:11;;;;;;;14.75;2.58;;;4.10;99.90;;;;;;5051687;28;20775;-72
2023/01/31 03:49:40;;;;;;;1.73;1.52;;;4.10;99.90;;;;;;5051894;28;20484;-73
2023/01/31 03:52:08;;;;;;;17.58;4.63;;;4.10;99.90;;;;;;5053261;28;20083;-73
2023/01/31 03:54:48;;;;;;;2.53;2.22;;;4.00;99.90;;;;;;5052872;28;20047;-72
2023/01/31 03:57:20;;;;;;;2.28;1.00;;;4.10;99.90;;;;;;5051661;28;20065;-73
2023/01/31 03:59:52;;;;;;;15.35;2.78;;;4.10;99.90;;;;;;5051410;28;20393;-72
2023/01/31 04:02:20;;;;;;;;;;;4.20;99.90;;;;;;5052274;28;20083;-72
2023/01/31 04:04:51;;;;;;;13.88;3.03;;;4.20;99.90;;;;;;5034915;28;19908;-72
2023/01/31 04:07:17;;;;;;;6.32;2.53;;;4.00;99.90;;;;;;5035033;28;20558;-72
2023/01/31 04:09:43;;;;;;;13.90;3.42;;;4.10;99.90;;;;;;5051451;28;20021;-72
2023/01/31 04:12:12;;;;;;;10.13;3.15;;;4.10;99.90;;;;;;5052590;28;20484;-73
2023/01/31 04:14:38;;;;;;;9.10;1.45;;;4.00;99.90;;;;;;5052883;28;20025;-73
2023/01/31 04:17:03;;;;;;;6.10;1.38;;;4.10;99.90;;;;;;5052475;28;20020;-72
2023/01/31 04:19:29;;;;;;;5.47;1.85;;;4.10;99.90;;;;;;5052781;28;20119;-72
2023/01/31 04:21:55;;;;;;;27.40;7.35;;;4.20;99.90;;;;;;5051319;28;20041;-72
2023/01/31 04:24:21;;;;;;;0.45;0.45;;;4.10;99.90;;;;;;5051137;28;20052;-73
2023/01/31 04:26:47;;;;;;;11.80;5.93;;;4.20;99.90;;;;;;5052580;28;20040;-73
2023/01/31 04:29:13;;;;;;;11.93;6.75;;;4.20;99.90;;;;;;5052436;28;20029;-73
2023/01/31 04:31:39;;;;;;;3.33;0.47;;;4.20;99.90;;;;;;5052675;28;20024;-73
2023/01/31 04:34:05;;;;;;;7.00;1.00;;;4.20;99.90;;;;;;5052272;28;20075;-73
2023/01/31 04:36:30;;;;;;;0.65;0.65;;;4.30;99.90;;;;;;5052561;28;20492;-73
2023/01/31 04:38:56;;;;;;;10.25;3.25;;;4.30;99.90;;;;;;5052203;28;20025;-73
2023/01/31 04:41:22;;;;;;;1.55;1.25;;;4.40;99.90;;;;;;5052427;28;20148;-73
2023/01/31 04:43:47;;;;;;;15.27;5.22;;;4.30;99.90;;;;;;5051102;28;20017;-72
2023/01/31 04:46:13;;;;;;;5.40;1.85;;;4.30;99.90;;;;;;5052414;28;20033;-73
2023/01/31 04:48:40;;;;;;;0.88;0.88;;;4.30;99.90;;;;;;5052514;28;20033;-73
2023/01/31 04:51:06;;;;;;;18.20;5.47;;;4.30;99.90;;;;;;5052278;28;20100;-73
2023/01/31 04:53:32;;;;;;;10.63;3.50;;;4.30;99.90;;;;;;5051988;28;20044;-73
2023/01/31 04:55:57;;;;;;;8.60;2.22;;;4.30;99.90;;;;;;5052052;28;20025;-72
2023/01/31 04:58:23;;;;;;;6.13;2.08;;;4.30;99.90;;;;;;5052202;28;20117;-73
2023/01/31 05:00:49;;;;;;;4.18;2.20;;;4.40;99.90;;;;;;5052073;28;20073;-73
2023/01/31 05:03:15;;;;;;;14.50;1.85;;;4.40;99.90;;;;;;5052260;28;20072;-73
2023/01/31 05:05:40;;;;;;;0.20;0.17;;;4.30;99.90;;;;;;5052076;28;20423;-73
2023/01/31 05:08:06;;;;;;;1.85;1.63;;;4.50;99.90;;;;;;5051700;28;20095;-73
2023/01/31 05:10:34;;;;;;;11.93;4.30;;;4.50;99.90;;;;;;5052209;28;20025;-73
2023/01/31 05:13:00;;;;;;;11.52;1.65;;;4.50;99.90;;;;;;5051903;28;20037;-73
2023/01/31 05:15:26;;;;;;;2.92;1.35;;;4.50;99.90;;;;;;5051962;28;20028;-73
2023/01/31 05:18:01;;;;;;;16.75;1.98;;;4.40;99.90;;;;;;5052106;28;20032;-73
2023/01/31 05:20:33;;;;;;;8.00;4.30;;;4.40;99.90;;;;;;5051998;28;20087;-73
2023/01/31 05:22:59;;;;;;;3.22;2.33;;;4.30;99.90;;;;;;5050483;28;20029;-73
2023/01/31 05:25:25;;;;;;;17.67;3.15;;;4.30;99.90;;;;;;5051893;28;20029;-73
2023/01/31 05:27:52;;;;;;;3.85;1.55;;;4.30;99.90;;;;;;5052026;28;20041;-73
2023/01/31 05:30:19;;;;;;;5.40;2.70;;;4.30;99.90;;;;;;5051672;28;20044;-73
2023/01/31 05:32:46;;;;;;;3.83;3.53;;;4.20;99.90;;;;;;5055594;28;20540;-73
2023/01/31 05:35:12;;;;;;;6.35;3.03;;;4.30;99.90;;;;;;5055499;28;20025;-73
2023/01/31 05:37:41;;;;;;;2.58;1.75;;;4.40;99.90;;;;;;5055256;28;20020;-73
2023/01/31 05:40:11;;;;;;;19.52;6.45;;;4.50;99.90;;;;;;5055398;28;20028;-73
2023/01/31 05:42:37;;;;;;;22.38;4.82;;;4.40;99.90;;;;;;5055538;28;20041;-73
2023/01/31 05:45:04;;;;;;;7.65;3.65;;;4.20;99.90;;;;;;5055512;28;20017;-73
2023/01/31 05:47:30;;;;;;;5.97;1.10;;;4.20;99.90;;;;;;5055209;28;20044;-73
2023/01/31 05:49:55;;;;;;;4.57;1.00;;;4.30;99.90;;;;;;5054020;28;20144;-73
2023/01/31 05:52:21;;;;;;;0.20;0.20;;;4.20;99.90;;;;;;5056098;28;20395;-74
2023/01/31 05:54:47;;;;;;;2.20;1.50;;;4.20;99.90;;;;;;5055409;28;20021;-74
2023/01/31 05:57:14;;;;;;;8.82;1.38;;;4.30;99.90;;;;;;5055264;28;20032;-73
2023/01/31 05:59:40;;;;;;;1.02;0.95;;;4.40;99.90;;;;;;5055216;28;20029;-73
2023/01/31 06:02:07;;;;;;;29.25;6.53;;;4.40;99.90;;;;;;5053941;28;20024;-73
2023/01/31 06:04:33;;;;;;;14.43;3.67;;;4.40;99.90;;;;;;5053879;28;20029;-73
2023/01/31 06:06:59;;;;;;;6.00;2.17;;;4.50;99.90;;;;;;5053490;28;20041;-73
2023/01/31 06:09:25;;;;;;;7.43;3.00;;;4.50;99.90;;;;;;5055126;28;20484;-74
2023/01/31 06:11:51;;;;;;;15.02;2.80;;;4.60;99.90;;;;;;5054656;28;20025;-73
2023/01/31 06:14:16;;;;;;;5.00;1.35;;;4.70;99.90;;;;;;5053840;28;20162;-72
2023/01/31 06:16:42;;;;;;;18.15;2.25;;;4.70;99.90;;;;;;5053499;28;20532;-73
2023/01/31 06:19:08;;;;;;;5.97;2.08;;;4.60;99.90;;;;;;5055567;28;20025;-73
2023/01/31 06:21:34;;;;;;;5.72;2.53;;;4.70;99.90;;;;;;5054056;28;20029;-73
2023/01/31 06:23:59;;;;;;;4.90;2.45;;;4.70;99.90;;;;;;5054864;28;20025;-73
2023/01/31 06:26:25;;;;;;;6.22;3.28;;;4.70;99.90;;;;;;5054627;28;20037;-73
2023/01/31 06:28:51;;;;;;;20.90;4.75;;;4.80;99.90;;;;;;5054568;28;20037;-73
2023/01/31 06:31:18;;;;;;;4.40;1.88;;;4.80;99.90;;;;;;5054582;28;20028;-74
2023/01/31 06:33:44;;;;;;;15.43;3.28;;;4.80;99.90;;;;;;5054544;28;20477;-73
2023/01/31 06:36:09;;;;;;;20.58;4.18;;;4.80;99.90;;;;;;5053783;28;20040;-73
2023/01/31 06:38:35;;;;;;;8.25;2.70;;;4.90;99.90;;;;;;5054534;28;20036;-74
2023/01/31 06:41:01;;;;;;;7.50;2.00;;;4.90;99.90;;;;;;5053963;28;20016;-73
2023/01/31 06:43:26;;;;;;;2.28;1.10;;;4.90;99.90;;;;;;5053424;28;20462;-73
2023/01/31 06:45:52;;;;;;;4.45;2.08;;;5.10;99.90;;;;;;5054202;28;20075;-73
2023/01/31 06:48:19;;;;;;;0.30;0.30;;;5.10;99.90;;;;;;5052895;28;20059;-73
2023/01/31 06:50:45;;;;;;;13.75;3.20;;;5.10;99.90;;;;;;5053838;28;20040;-73
2023/01/31 06:53:11;;;;;;;13.10;4.10;;;5.10;99.90;;;;;;5039043;28;20055;-73
2023/01/31 06:55:38;;;;;;;4.10;2.10;;;5.10;99.90;;;;;;5054088;28;20050;-73
2023/01/31 06:58:03;;;;;;;5.85;2.28;;;5.10;99.90;;;;;;5053829;28;20063;-73
2023/01/31 07:00:29;;;;;;;19.75;4.75;;;5.10;99.90;;;;;;5054006;28;20028;-73
2023/01/31 07:02:55;;;;;;;19.33;1.52;;;5.10;99.90;;;;;;5053913;28;20025;-74
2023/01/31 07:05:22;;;;;;;1.92;1.52;;;5.10;99.90;;;;;;5053648;28;20496;-74
2023/01/31 07:07:48;;;;;;;5.20;2.42;;;5.20;99.90;;;;;;5053618;28;20036;-73
2023/01/31 07:10:16;;;;;;;3.28;2.22;;;5.20;99.90;;;;;;5053833;28;20115;-73
2023/01/31 07:12:41;;;;;;;3.60;0.82;;;5.30;99.90;;;;;;5053574;28;20493;-73
2023/01/31 07:15:09;;;;;;;15.82;3.95;;;5.40;99.90;;;;;;5053711;28;20171;-72
2023/01/31 07:17:34;;;;;;;6.63;2.00;;;5.40;99.90;;;;;;5052704;28;20032;-73
2023/01/31 07:20:00;;;;;;;2.72;1.85;;;5.40;99.90;;;;;;5055368;28;20037;-72
2023/01/31 07:22:27;;;;;;;7.65;2.15;;;5.40;99.90;;;;;;5052326;28;20029;-72
2023/01/31 07:24:52;;;;;;;5.60;2.67;;;5.50;99.90;;;;;;5050352;28;20073;-73
2023/01/31 07:27:18;;;;;;;28.35;3.60;;;5.50;99.90;;;;;;5050350;28;20397;-73
2023/01/31 07:29:44;;;;;;;18.27;3.75;;;5.60;99.90;;;;;;5058019;28;20029;-72
2023/01/31 07:32:11;;;;;;;13.63;3.65;;;5.60;99.90;;;;;;5065860;28;20025;-72
2023/01/31 07:34:37;;;;;;;13.13;2.75;;;5.60;99.90;;;;;;5057301;28;20479;-73
2023/01/31 07:37:02;;;;;;;16.92;6.60;;;5.50;99.90;;;;;;5050540;28;20020;-72
2023/01/31 07:39:28;;;;;;;4.22;1.65;;;5.60;99.90;;;;;;5050734;28;20029;-73
2023/01/31 07:41:54;;;;;;;3.72;0.52;;;5.60;99.90;;;;;;5057004;28;20120;-73
2023/01/31 07:44:23;;;;;;;2.92;2.15;;;5.60;99.90;;;;;;5060658;28;20029;-72
2023/01/31 07:46:49;;;;;;;13.48;0.93;;;5.70;99.90;;;;;;5058109;28;20047;-73
2023/01/31 07:49:15;;;;;;;9.07;2.55;;;5.70;99.90;;;;;;5055803;28;20028;-72
2023/01/31 07:51:41;;;;;;;0.30;0.30;;;5.80;99.90;;;;;;5050302;28;20529;-73
2023/01/31 07:54:09;;;;;;;0.75;0.52;;;5.80;99.90;;;;;;5059259;28;20107;-73
2023/01/31 07:56:35;;;;;;;11.88;2.15;;;5.90;99.90;;;;;;5053411;28;20025;-73
2023/01/31 07:59:01;;;;;;;11.32;2.10;;;6.00;99.90;;;;;;5059515;28;20029;-73
2023/01/31 08:04:13;;;;;;;2.20;1.17;;;5.90;99.90;;;;;;5047136;28;20028;-72
2023/01/31 08:06:41;;;;;;;5.20;2.10;;;5.90;99.90;;;;;;5052062;28;20191;-72
2023/01/31 08:09:07;;;;;;;7.45;2.75;;;5.90;99.90;;;;;;5058487;28;20107;-72
2023/01/31 08:11:33;;;;;;;9.23;2.45;;;6.00;99.90;;;;;;5050172;28;20479;-73
2023/01/31 08:13:58;;;;;;;1.75;1.17;;;6.00;99.90;;;;;;5049874;28;20025;-72
2023/01/31 08:16:24;;;;;;;0.90;0.73;;;6.10;99.90;;;;;;5040384;28;20075;-72
2023/01/31 08:18:51;;;;;;;11.43;2.10;;;6.10;99.90;;;;;;5042336;28;20060;-72
2023/01/31 08:21:18;;;;;;;18.13;5.18;;;6.00;99.90;;;;;;5060496;28;20036;-72
2023/01/31 08:23:44;;;;;;;25.80;1.63;;;6.00;99.90;;;;;;5051162;28;20557;-73
2023/01/31 08:26:13;;;;;;;9.80;3.17;;;6.00;99.90;;;;;;5046865;28;20024;-73
2023/01/31 08:28:39;;;;;;;5.72;2.92;;;6.10;99.90;;;;;;5047066;28;20489;-73
2023/01/31 08:31:05;;;;;;;2.70;1.27;;;6.10;99.90;;;;;;5036728;28;20048;-73
2023/01/31 08:33:31;;;;;;;12.48;2.20;;;6.10;99.90;;;;;;5063024;28;20112;-73
2023/01/31 08:36:07;;;;;;;3.95;1.63;;;6.20;99.90;;;;;;5055793;28;20151;-73
2023/01/31 08:38:33;;;;;;;4.05;1.90;;;6.20;99.90;;;;;;5051211;28;20547;-73
2023/01/31 08:40:59;;;;;;;22.30;3.75;;;6.20;99.90;;;;;;5051303;28;20040;-72
2023/01/31 08:43:25;;;;;;;34.83;4.20;;;6.20;99.90;;;;;;5064954;28;20162;-73
2023/01/31 08:45:50;;;;;;;13.38;3.75;;;6.10;99.90;;;;;;5060806;28;20514;-72
2023/01/31 08:48:16;;;;;;;4.60;1.83;;;6.20;99.90;;;;;;5053760;28;20045;-73
2023/01/31 08:50:42;;;;;;;12.75;1.95;;;6.20;99.90;;;;;;5049882;28;20044;-72
2023/01/31 08:53:08;;;;;;;12.23;2.28;;;6.30;99.90;;;;;;5035205;28;20035;-72
2023/01/31 08:55:35;;;;;;;9.32;1.33;;;6.20;99.90;;;;;;5049172;28;20028;-72
2023/01/31 08:58:01;;;;;;;6.55;2.50;;;6.30;99.90;;;;;;5055697;28;20068;-73
2023/01/31 09:00:28;;;;;;;4.82;1.90;;;6.30;99.90;;;;;;5052539;28;20025;-73
2023/01/31 09:02:55;;;;;;;3.00;1.48;;;6.40;99.90;;;;;;5040279;28;20025;-72
2023/01/31 09:05:22;;;;;;;13.18;3.03;;;6.40;99.90;;;;;;5052193;28;20045;-72
2023/01/31 09:07:48;;;;;;;16.05;2.60;;;6.30;99.90;;;;;;5052276;28;20037;-72
2023/01/31 09:10:14;;;;;;;2.70;1.33;;;6.30;99.90;;;;;;5053541;28;20021;-72
2023/01/31 09:12:40;;;;;;;37.90;4.25;;;6.40;99.90;;;;;;5056718;28;20017;-72
2023/01/31 09:15:06;;;;;;;2.38;1.50;;;6.30;99.90;;;;;;5050862;28;20100;-72
2023/01/31 09:17:31;;;;;;;2.70;0.75;;;6.30;99.90;;;;;;5058749;28;20031;-73
2023/01/31 09:19:57;;;;;;;10.02;1.98;;;6.50;99.90;;;;;;5062974;28;20383;-73
2023/01/31 09:22:23;;;;;;;9.48;2.95;;;6.40;99.90;;;;;;5057459;28;20025;-72
2023/01/31 09:24:49;;;;;;;11.43;3.17;;;6.40;99.90;;;;;;5053017;28;20138;-72
2023/01/31 09:27:16;;;;;;;26.83;4.18;;;6.40;99.90;;;;;;5045758;28;20063;-73
2023/01/31 09:29:42;;;;;;;9.60;3.70;;;6.30;99.90;;;;;;5059960;28;20071;-72
2023/01/31 09:32:07;;;;;;;11.43;3.45;;;6.30;99.90;;;;;;5063365;28;20886;-73
2023/01/31 09:34:33;;;;;;;15.45;4.40;;;6.30;99.90;;;;;;5059215;28;20025;-73
2023/01/31 09:36:59;;;;;;;14.48;2.45;;;6.30;99.90;;;;;;5060992;28;20086;-72
2023/01/31 09:39:24;;;;;;;10.13;3.78;;;6.40;99.90;;;;;;5053921;28;20017;-72
2023/01/31 09:42:15;;;;;;;3.67;1.60;;;6.40;99.90;;;;;;5059775;28;20035;-72
2023/01/31 09:44:45;;;;;;;5.15;2.63;;;6.50;99.90;;;;;;5044117;28;20029;-72
2023/01/31 09:47:16;;;;;;;24.17;6.03;;;6.50;99.90;;;;;;5062217;28;20395;-73
2023/01/31 09:49:50;;;;;;;10.20;5.10;;;6.60;99.90;;;;;;5053444;28;20385;-73
2023/01/31 09:52:16;;;;;;;2.55;2.28;;;6.60;99.90;;;;;;5051838;28;20037;-72
2023/01/31 09:54:43;;;;;;;10.93;3.15;;;6.60;99.90;;;;;;5064247;28;20513;-73
2023/01/31 09:57:11;;;;;;;15.23;3.92;;;6.80;99.90;;;;;;5064032;28;20020;-74
2023/01/31 09:59:46;;;;;;;11.82;4.22;;;6.60;99.90;;;;;;5057405;28;20025;-75
2023/01/31 10:02:43;;;;;;;10.23;3.20;;;6.70;99.90;;;;;;5051800;28;20033;-72
2023/01/31 10:05:18;;;;;;;10.52;2.83;;;6.70;99.90;;;;;;5055030;28;20035;-73
2023/01/31 10:07:53;;;;;;;19.70;4.65;;;6.80;99.90;;;;;;5066266;28;20110;-74
2023/01/31 10:10:35;;;;;;;10.65;2.15;;;6.80;99.90;;;;;;5051156;28;20028;-72
2023/01/31 10:13:09;;;;;;;1.45;1.10;;;6.90;99.90;;;;;;5056165;28;20024;-73
2023/01/31 10:15:46;;;;;;;15.02;3.22;;;6.90;99.90;;;;;;5058123;28;20112;-74
2023/01/31 10:18:15;;;;;;;0.68;0.68;;;7.00;99.90;;;;;;5057123;28;20090;-74
2023/01/31 10:20:48;;;;;;;1.77;1.17;;;7.10;99.90;;;;;;5059004;28;20029;-73
2023/01/31 10:23:51;;;;;;;19.80;3.97;;;7.30;99.90;;;;;;5053682;28;20037;-73
2023/01/31 10:26:23;;;;;;;3.90;0.65;;;7.40;99.90;;;;;;5042368;28;20033;-72
2023/01/31 10:29:00;;;;;;;9.27;2.20;;;7.40;99.90;;;;;;5053861;28;20665;-73
2023/01/31 10:31:39;;;;;;;17.08;2.90;;;7.60;99.90;;;;;;5068206;28;20029;-73
2023/01/31 10:34:27;;;;;;;9.32;2.00;;;8.10;99.90;;;;;;5062388;28;20033;-72
2023/01/31 10:37:26;;;;;;;7.97;1.80;;;8.60;99.90;;;;;;5055393;28;20104;-73
2023/01/31 10:39:56;;;;;;;9.07;2.97;;;8.30;99.90;;;;;;5041533;28;20033;-74
2023/01/31 10:42:36;;;;;;;4.85;1.58;;;7.90;99.90;;;;;;5045841;28;20037;-73
2023/01/31 10:45:18;;;;;;;14.98;3.30;;;7.80;99.90;;;;;;5056873;28;20090;-73
2023/01/31 10:47:51;;;;;;;4.10;1.60;;;7.60;99.90;;;;;;5055530;28;20029;-73
2023/01/31 10:50:18;;;;;;;1.88;1.20;;;7.70;99.90;;;;;;5053103;28;20098;-73
2023/01/31 10:53:21;;;;;;;11.68;2.83;;;7.80;99.90;;;;;;5046490;28;20461;-73
2023/01/31 10:56:10;;;;;;;16.20;3.60;;;7.80;99.90;;;;;;5058891;28;20365;-73
2023/01/31 10:58:37;;;;;;;16.05;2.85;;;7.90;99.90;;;;;;5053251;28;20025;-73
2023/01/31 11:01:07;;;;;;;2.90;1.10;;;8.00;99.90;;;;;;5057262;28;20028;-73
2023/01/31 11:03:33;;;;;;;3.17;1.88;;;8.10;99.90;;;;;;5048395;28;20450;-73
2023/01/31 11:06:00;;;;;;;20.35;1.95;;;8.00;99.90;;;;;;5061216;28;20082;-73
2023/01/31 11:08:42;;;;;;;3.38;1.63;;;8.00;99.90;;;;;;5055908;28;20025;-73
2023/01/31 11:11:10;;;;;;;12.93;2.40;;;8.00;99.90;;;;;;5035127;28;20132;-73
2023/01/31 11:13:37;;;;;;;10.48;3.83;;;8.00;99.90;;;;;;5045929;28;20021;-73
2023/01/31 11:16:06;;;;;;;2.25;1.15;;;8.10;99.90;;;;;;5053809;28;20037;-73
2023/01/31 11:18:43;;;;;;;9.18;2.65;;;8.20;99.90;;;;;;5051530;28;20017;-73
2023/01/31 11:21:17;;;;;;;5.90;3.05;;;8.30;99.90;;;;;;5046628;28;20047;-73
2023/01/31 11:23:44;;;;;;;15.13;2.90;;;8.40;99.90;;;;;;5053261;28;20476;-73
2023/01/31 11:26:11;;;;;;;6.03;1.77;;;8.40;99.90;;;;;;5049694;28;20033;-73
2023/01/31 11:28:40;;;;;;;13.43;2.72;;;8.50;99.90;;;;;;5051351;28;20481;-73
2023/01/31 11:31:20;;;;;;;7.95;2.85;;;8.70;99.90;;;;;;5039843;28;20028;-74
2023/01/31 11:33:55;;;;;;;12.63;2.30;;;8.80;99.90;;;;;;5063566;28;20460;-73
2023/01/31 11:36:23;;;;;;;7.25;1.55;;;8.80;99.90;;;;;;5055483;28;20076;-73
2023/01/31 11:38:53;;;;;;;14.75;2.38;;;8.80;99.90;;;;;;5053308;28;20115;-74
2023/01/31 11:41:32;;;;;;;3.30;1.95;;;8.90;99.90;;;;;;5039283;28;20067;-74
2023/01/31 11:44:18;;;;;;;9.50;3.25;;;9.00;99.90;;;;;;5049385;28;20036;-73
2023/01/31 11:46:58;;;;;;;25.67;4.85;;;8.90;99.90;;;;;;5048771;28;20124;-73
2023/01/31 11:49:41;;;;;;;12.20;3.25;;;8.80;99.90;;;;;;5041704;28;20568;-72
2023/01/31 11:52:27;;;;;;;19.38;2.28;;;8.80;99.90;;;;;;5045336;28;20116;-72
2023/01/31 11:54:56;;;;;;;23.67;4.25;;;8.80;99.90;;;;;;5058743;28;20651;-72
2023/01/31 11:57:27;;;;;;;11.27;3.55;;;8.90;99.90;;;;;;5054543;28;20017;-75
2023/01/31 11:59:56;;;;;;;6.97;1.98;;;8.80;99.90;;;;;;5042588;28;20036;-73
2023/01/31 12:02:31;;;;;;;10.80;3.53;;;8.70;99.90;;;;;;5052924;28;20032;-73
2023/01/31 12:04:57;;;;;;;2.00;1.48;;;8.80;99.90;;;;;;5052601;28;20029;-73
2023/01/31 12:07:27;;;;;;;12.05;3.53;;;8.70;99.90;;;;;;5052677;28;20040;-71
2023/01/31 12:09:53;;;;;;;4.38;1.38;;;8.70;99.90;;;;;;5052110;28;20358;-73
2023/01/31 12:12:33;;;;;;;16.52;5.22;;;8.80;99.90;;;;;;5051323;28;20024;-73
2023/01/31 12:15:12;;;;;;;28.05;4.05;;;8.80;99.90;;;;;;5052552;28;20071;-73
2023/01/31 12:17:44;;;;;;;18.95;4.68;;;8.80;99.90;;;;;;5052459;28;20029;-77
2023/01/31 12:20:42;;;;;;;16.67;4.13;;;8.70;99.90;;;;;;5052430;28;20086;-73
2023/01/31 12:23:33;;;;;;;21.90;4.15;;;8.80;99.90;;;;;;5046439;28;20053;-73
2023/01/31 12:26:33;;;;;;;9.50;1.40;;;8.70;99.90;;;;;;5051307;28;20033;-73
2023/01/31 12:29:26;;;;;;;6.45;3.00;;;8.70;99.90;;;;;;5052477;28;20049;-73
2023/01/31 12:32:17;;;;;;;12.27;2.85;;;8.70;99.90;;;;;;5052533;28;20025;-73
2023/01/31 12:35:15;;;;;;;6.45;2.67;;;8.80;99.90;;;;;;5052588;28;20123;-73
2023/01/31 12:38:03;;;;;;;20.15;3.60;;;8.80;99.90;;;;;;5051965;28;20039;-73
2023/01/31 12:40:50;;;;;;;13.18;4.93;;;8.60;99.90;;;;;;5054309;28;20378;-74
2023/01/31 12:43:55;;;;;;;9.90;4.07;;;8.50;99.90;;;;;;5055788;28;20037;-73
2023/01/31 12:46:27;;;;;;;18.30;4.72;;;8.50;99.90;;;;;;5056396;28;20044;-73
2023/01/31 12:49:02;;;;;;;;;;;8.30;99.90;;;;;;5056909;28;20503;-73
2023/01/31 12:51:34;;;;;;;37.60;7.15;;;8.40;99.90;;;;;;5056596;28;19966;-73
2023/01/31 12:55:00;;;;;;;12.07;3.33;;;8.30;99.90;;;;;;5056132;28;20033;-73
2023/01/31 12:57:38;;;;;;;9.77;1.98;;;8.30;99.90;;;;;;5032750;28;20493;-73
2023/01/31 13:00:41;;;;;;;12.80;4.03;;;8.20;99.90;;;;;;5056373;28;20116;-73
2023/01/31 13:03:12;;;;;;;14.10;3.60;;;8.20;99.90;;;;;;5056053;28;20078;-73
2023/01/31 13:05:47;;;;;;;6.93;3.30;;;8.20;99.90;;;;;;5054889;28;20025;-73
2023/01/31 13:08:31;;;;;;;9.85;4.47;;;8.20;99.90;;;;;;5055755;28;20040;-73
2023/01/31 13:11:18;;;;;;;6.22;1.88;;;8.10;99.90;;;;;;5055872;28;20546;-72
2023/01/31 13:13:58;;;;;;;28.08;7.65;;;8.10;99.90;;;;;;5056072;28;20048;-73
2023/01/31 13:16:27;;;;;;;8.45;2.63;;;8.10;99.90;;;;;;5054768;28;20090;-73